KFMY/FMY METAR and TAF weather

Enter ICAO airport designator
Station Type Date Time Source
KFMY METAR 2020/07/14 06:53 UTC NOAA

KFMY 140653Z AUTO 00000KT 10SM CLR 28/25 A2997 RMK AO2 SLP150 T02780250


Station Type Date Time Source
KFMY Decoded METAR 2020/07/14 06:53 UTC NOAA

FORT MYERS PAGE FIELD, FL, United States (KFMY) 26-35N 081-52W 4M
Jul 14, 2020 - 02:53 AM EDT / 2020.07.14 0653 UTC
Wind: Calm:0
Visibility: 10 mile(s):0
Sky conditions: clear
Temperature: 82.0 F (27.8 C)
Dew Point: 77.0 F (25.0 C)
Relative Humidity: 84%
Pressure (altimeter): 29.97 in. Hg (1014 hPa)
ob: KFMY 140653Z AUTO 00000KT 10SM CLR 28/25 A2997 RMK AO2 SLP150 T02780250
cycle: 7

Station Type Date Time Source
KFMY TAF 2020/07/14 06:22 UTC NOAA

TAF KFMY 140520Z 1406/1506 28005KT P6SM SCT025 SCT250
FM141500 28008KT P6SM VCSH SCT035 BKN250
FM141800 27009KT P6SM VCTS SCT050CB BKN250
FM150000 29006KT P6SM SCT035 SCT250

Example: see airport list